Time;durP1;ratioP1;P1;durP2;ratioP2;P2;SDS_P1;SDS_P2;PMS_P1;PMS_P2;Temp;Humidity;BMP_temperature;BMP_pressure;BME280_temperature;BME280_humidity;BME280_pressure;Samples;Min_cycle;Max_cycle;Signal;HPM_P1;HPM_P2
2023/10/09 00:01:09;;;;;;;7.23;3.10;;;;;;;19.64;62.11;95300.75;5074942;28;20444;-78
2023/10/09 00:03:37;;;;;;;11.13;3.73;;;;;;;19.62;62.36;95302.78;5074047;28;20447;-78
2023/10/09 00:06:07;;;;;;;7.97;3.90;;;;;;;19.62;62.24;95310.75;5039631;28;20506;-78
2023/10/09 00:08:37;;;;;;;9.13;2.93;;;;;;;19.58;62.63;95290.00;5074299;28;20448;-78
2023/10/09 00:11:16;;;;;;;5.53;3.00;;;;;;;19.48;62.44;95290.19;5055374;28;20435;-78
2023/10/09 00:13:57;;;;;;;7.90;4.13;;;;;;;19.49;62.67;95300.66;5074215;28;20950;-78
2023/10/09 00:16:32;;;;;;;8.77;2.97;;;;;;;19.46;62.61;95297.53;5074058;28;20599;-78
2023/10/09 00:19:13;;;;;;;4.53;3.00;;;;;;;19.42;62.47;95290.91;5041087;28;20530;-79
2023/10/09 00:21:41;;;;;;;4.67;3.13;;;;;;;19.33;62.84;95289.25;5055436;28;20534;-78
2023/10/09 00:24:13;;;;;;;5.30;2.83;;;;;;;19.34;63.25;95290.91;5073966;28;20472;-78
2023/10/09 00:26:45;;;;;;;5.67;3.13;;;;;;;19.29;62.92;95291.44;5040167;28;20487;-79
2023/10/09 00:29:21;;;;;;;10.83;3.47;;;;;;;19.27;62.92;95289.97;5038232;28;20801;-78
2023/10/09 00:31:55;;;;;;;10.93;3.13;;;;;;;19.19;64.03;95297.00;5073715;28;20450;-78
2023/10/09 00:34:26;;;;;;;5.90;2.80;;;;;;;19.17;63.37;95299.00;5074031;28;20443;-78
2023/10/09 00:36:55;;;;;;;4.90;2.60;;;;;;;19.21;63.93;95302.13;5073817;28;21035;-78
2023/10/09 00:39:42;;;;;;;6.40;3.43;;;;;;;19.19;62.81;95299.66;5073802;28;20812;-78
2023/10/09 00:42:12;;;;;;;4.43;2.50;;;;;;;19.14;63.16;95302.00;5044341;28;20451;-79
2023/10/09 00:44:41;;;;;;;9.17;3.30;;;;;;;19.06;63.11;95301.19;5073708;28;20529;-78
2023/10/09 00:47:22;;;;;;;15.10;2.87;;;;;;;19.01;63.79;95303.53;5038910;28;20483;-78
2023/10/09 00:49:59;;;;;;;6.40;3.10;;;;;;;18.98;63.35;95309.19;5041426;28;20509;-78
2023/10/09 00:52:33;;;;;;;4.37;3.00;;;;;;;18.94;64.56;95303.41;5073677;28;20449;-78
2023/10/09 00:55:04;;;;;;;4.10;3.07;;;;;;;18.89;63.49;95308.41;5073670;28;20444;-78
2023/10/09 00:57:34;;;;;;;9.73;3.40;;;;;;;18.85;63.83;95304.44;5071417;28;20475;-78
2023/10/09 01:00:12;;;;;;;4.80;2.67;;;;;;;18.85;64.00;95318.56;5073287;28;20934;-78
2023/10/09 01:02:44;;;;;;;6.63;2.63;;;;;;;18.80;64.33;95320.06;5073292;28;20446;-78
2023/10/09 01:05:18;;;;;;;7.00;2.57;;;;;;;18.74;64.03;95318.06;5039336;28;20448;-79
2023/10/09 01:07:58;;;;;;;4.43;2.40;;;;;;;18.64;63.93;95326.22;5072396;28;20447;-78
2023/10/09 01:10:33;;;;;;;5.73;2.43;;;;;;;18.58;64.21;95318.91;5073481;28;20436;-78
2023/10/09 01:12:59;;;;;;;8.93;3.40;;;;;;;18.56;64.59;95326.22;5072865;28;20877;-78
2023/10/09 01:15:43;;;;;;;5.23;3.00;;;;;;;18.55;64.34;95338.69;5072870;28;20451;-78
2023/10/09 01:18:11;;;;;;;6.07;2.40;;;;;;;18.51;64.49;95355.97;5072979;28;20556;-78
2023/10/09 01:20:41;;;;;;;15.70;3.40;;;;;;;18.53;64.05;95361.94;5073008;28;20473;-80
2023/10/09 01:23:12;;;;;;;10.03;2.77;;;;;;;18.54;64.24;95365.44;5072456;28;20849;-78
2023/10/09 01:25:45;;;;;;;11.40;3.20;;;;;;;18.53;64.27;95364.59;5053613;28;20535;-78
2023/10/09 01:28:15;;;;;;;10.53;3.40;;;;;;;18.46;63.81;95347.63;5072539;28;20458;-77
2023/10/09 01:30:43;;;;;;;4.80;2.70;;;;;;;18.42;63.25;95369.41;5072845;28;20478;-78
2023/10/09 01:33:22;;;;;;;4.27;2.70;;;;;;;18.35;63.11;95379.88;5072430;28;20472;-78
2023/10/09 01:35:53;;;;;;;3.70;2.47;;;;;;;18.27;63.15;95378.06;5040418;28;20868;-78
2023/10/09 01:38:31;;;;;;;8.53;2.90;;;;;;;18.24;62.81;95370.41;5072371;28;20451;-78
2023/10/09 01:41:06;;;;;;;4.27;2.40;;;;;;;18.11;63.70;95369.22;5072333;28;20534;-79
2023/10/09 01:43:34;;;;;;;7.40;2.83;;;;;;;18.03;64.08;95379.84;5072329;28;20886;-78
2023/10/09 01:46:04;;;;;;;3.80;2.97;;;;;;;17.97;63.44;95383.16;5072221;28;20490;-78
2023/10/09 01:48:35;;;;;;;5.97;2.63;;;;;;;17.89;64.36;95392.75;5036983;28;20478;-78
2023/10/09 01:51:05;;;;;;;5.37;2.93;;;;;;;17.83;64.24;95385.44;5072144;28;20500;-79
2023/10/09 01:53:33;;;;;;;6.43;3.20;;;;;;;17.69;64.47;95379.94;5072151;28;20453;-78
2023/10/09 01:56:14;;;;;;;10.20;2.70;;;;;;;17.58;66.15;95397.78;5072440;28;20441;-78
2023/10/09 01:58:43;;;;;;;5.33;2.60;;;;;;;17.54;66.65;95416.84;5072243;28;20464;-78
2023/10/09 02:01:10;;;;;;;10.90;3.30;;;;;;;17.56;64.39;95414.84;5037221;28;20433;-79
2023/10/09 02:03:38;;;;;;;5.00;2.77;;;;;;;17.52;64.54;95417.00;5072563;28;20440;-78
2023/10/09 02:06:24;;;;;;;7.50;4.07;;;;;;;17.42;65.43;95418.13;5072139;28;20573;-78
2023/10/09 02:08:53;;;;;;;5.23;3.13;;;;;;;17.37;64.86;95426.56;5072050;28;20440;-78
2023/10/09 02:11:24;;;;;;;3.87;3.03;;;;;;;17.23;64.83;95406.75;5036692;28;20445;-78
2023/10/09 02:13:57;;;;;;;3.17;2.60;;;;;;;17.28;66.19;95416.88;5071952;28;20934;-79
2023/10/09 02:16:29;;;;;;;7.23;3.20;;;;;;;17.17;65.88;95431.25;5071939;28;20485;-78
2023/10/09 02:18:58;;;;;;;3.67;2.97;;;;;;;17.10;65.43;95422.25;5072001;28;20445;-78
2023/10/09 02:21:33;;;;;;;2.93;2.60;;;;;;;17.04;65.78;95425.50;5072028;28;20445;-79
2023/10/09 02:24:06;;;;;;;9.10;3.27;;;;;;;16.96;66.25;95442.22;5072049;28;20479;-78
2023/10/09 02:27:06;;;;;;;7.73;2.40;;;;;;;16.99;65.30;95449.03;5071943;28;20488;-78
2023/10/09 02:29:23;;;;;;;4.20;2.60;;;;;;;16.85;66.09;95437.19;5072674;28;20784;-78
2023/10/09 02:31:52;;;;;;;5.43;2.70;;;;;;;16.80;66.33;95447.41;5037906;28;20448;-77
2023/10/09 02:34:22;;;;;;;3.27;2.97;;;;;;;16.75;65.64;95435.59;5072431;28;20919;-81
2023/10/09 02:36:57;;;;;;;8.97;2.93;;;;;;;16.73;65.77;95451.66;5037992;28;20539;-78
2023/10/09 02:39:26;;;;;;;4.80;2.40;;;;;;;16.76;66.21;95461.09;5072729;28;20441;-78
2023/10/09 02:41:58;;;;;;;4.13;2.40;;;;;;;16.69;65.98;95467.03;5072654;28;20445;-78
2023/10/09 02:44:25;;;;;;;3.33;2.10;;;;;;;16.64;66.92;95471.09;5072464;28;20501;-78
2023/10/09 02:46:57;;;;;;;6.20;2.93;;;;;;;16.56;66.32;95465.72;5072308;28;20491;-78
2023/10/09 02:49:24;;;;;;;4.30;2.70;;;;;;;16.47;66.14;95467.47;5072388;28;20540;-78
2023/10/09 02:51:53;;;;;;;8.13;3.00;;;;;;;16.49;66.40;95472.63;5072593;28;20441;-78
2023/10/09 02:54:27;;;;;;;2.53;2.00;;;;;;;16.39;66.46;95454.97;5072802;28;20451;-79
2023/10/09 02:57:05;;;;;;;5.80;2.67;;;;;;;16.33;66.80;95460.88;5072368;28;20811;-80
2023/10/09 02:59:32;;;;;;;6.10;2.70;;;;;;;16.21;67.11;95462.09;5036691;28;20443;-78
2023/10/09 03:01:59;;;;;;;3.57;2.40;;;;;;;16.18;67.91;95469.50;5072220;28;20445;-78
2023/10/09 03:04:30;;;;;;;5.07;2.53;;;;;;;16.16;68.10;95468.81;5072107;28;20448;-78
2023/10/09 03:06:58;;;;;;;7.13;2.50;;;;;;;16.18;67.13;95482.72;5072178;28;21060;-78
2023/10/09 03:09:28;;;;;;;4.57;2.37;;;;;;;16.20;66.38;95486.91;5072281;28;20477;-78
2023/10/09 03:12:02;;;;;;;3.80;2.63;;;;;;;16.23;67.91;95491.09;5072140;28;20445;-78
2023/10/09 03:14:30;;;;;;;3.30;2.43;;;;;;;16.17;67.95;95491.66;5072289;28;20469;-78
2023/10/09 03:16:57;;;;;;;6.93;2.43;;;;;;;16.27;66.26;95498.56;5072386;28;20487;-78
2023/10/09 03:19:26;;;;;;;2.47;2.27;;;;;;;16.31;65.94;95491.16;5071965;28;20456;-78
2023/10/09 03:21:53;;;;;;;4.33;2.20;;;;;;;16.25;66.02;95499.72;5071958;28;20442;-78
2023/10/09 03:24:22;;;;;;;2.30;2.10;;;;;;;16.19;65.91;95500.28;5071237;28;20448;-78
2023/10/09 03:26:50;;;;;;;3.50;2.33;;;;;;;16.15;66.01;95497.09;5071546;28;20984;-78
2023/10/09 03:29:19;;;;;;;3.30;2.23;;;;;;;16.16;66.40;95506.72;5072729;28;20437;-78
2023/10/09 03:31:50;;;;;;;2.87;2.57;;;;;;;16.19;65.83;95503.78;5073713;28;20450;-78
2023/10/09 03:34:18;;;;;;;2.03;1.83;;;;;;;16.12;66.18;95494.75;5075665;28;20499;-78
2023/10/09 03:36:44;;;;;;;3.53;2.63;;;;;;;16.04;65.78;95502.63;5075459;28;20468;-78
2023/10/09 03:39:24;;;;;;;3.00;1.97;;;;;;;15.97;65.95;95512.97;5075229;28;20441;-79
2023/10/09 03:41:51;;;;;;;4.10;2.13;;;;;;;15.96;67.74;95505.19;5075514;28;20441;-77
2023/10/09 03:44:19;;;;;;;2.30;2.10;;;;;;;15.92;66.02;95509.94;5075576;28;20492;-78
2023/10/09 03:46:46;;;;;;;2.83;2.17;;;;;;;15.95;66.60;95517.59;5075279;28;20497;-78
2023/10/09 03:49:20;;;;;;;2.17;1.93;;;;;;;15.96;65.47;95521.91;5075162;28;20959;-78
2023/10/09 03:51:47;;;;;;;2.47;2.27;;;;;;;16.09;69.95;95516.25;5075314;28;20451;-78
2023/10/09 03:54:15;;;;;;;4.10;2.07;;;;;;;15.99;66.95;95518.94;5068433;28;20468;-78
2023/10/09 03:56:42;;;;;;;3.10;2.57;;;;;;;15.96;66.03;95521.06;5075062;28;20804;-78
2023/10/09 03:59:11;;;;;;;5.27;2.23;;;;;;;15.87;65.29;95536.00;5074929;28;20529;-78
2023/10/09 04:01:40;;;;;;;8.90;2.60;;;;;;;15.96;66.05;95532.47;5074963;28;20462;-78
2023/10/09 04:04:10;;;;;;;4.33;3.03;;;;;;;16.19;68.15;95534.72;5074957;28;20451;-76
2023/10/09 04:06:37;;;;;;;3.80;2.10;;;;;;;16.30;63.96;95539.81;5074933;28;20492;-79
2023/10/09 04:09:26;;;;;;;4.43;1.90;;;;;;;16.43;65.94;95542.91;5056020;28;20439;-77
2023/10/09 04:12:13;;;;;;;5.00;3.47;;;;;;;16.34;64.32;95535.88;5074990;28;20902;-78
2023/10/09 04:14:48;;;;;;;4.80;2.17;;;;;;;16.23;62.94;95536.94;5074550;28;20437;-79
2023/10/09 04:22:39;;;;;;;3.63;2.23;;;;;;;15.76;63.22;95529.09;5055232;28;20445;-78
2023/10/09 04:25:14;;;;;;;8.10;6.47;;;;;;;15.79;64.29;95535.91;5066836;28;20445;-78
2023/10/09 04:27:41;;;;;;;3.70;2.50;;;;;;;15.75;64.50;95523.94;5074292;28;20986;-78
2023/10/09 04:30:15;;;;;;;4.07;2.67;;;;;;;15.94;65.87;95529.16;5074601;28;20790;-79
2023/10/09 04:32:44;;;;;;;5.50;3.30;;;;;;;16.06;63.16;95537.72;5038944;28;20428;-78
2023/10/09 04:35:23;;;;;;;5.73;3.30;;;;;;;15.95;61.12;95540.56;5074688;28;20445;-78
2023/10/09 04:37:52;;;;;;;4.30;3.57;;;;;;;15.92;61.11;95540.88;5074501;28;20444;-78
2023/10/09 04:40:41;;;;;;;6.10;1.97;;;;;;;15.76;60.72;95547.59;5073620;28;20451;-77
2023/10/09 04:43:07;;;;;;;8.90;2.00;;;;;;;15.60;60.58;95552.66;5073796;28;20463;-77
2023/10/09 04:48:37;;;;;;;2.00;1.70;;;;;;;15.49;60.60;95545.72;5073712;28;20526;-79
2023/10/09 04:51:34;;;;;;;5.57;2.23;;;;;;;15.46;60.54;95540.72;5073942;28;20445;-77
2023/10/09 04:54:12;;;;;;;5.50;2.67;;;;;;;15.39;60.83;95544.94;5047120;28;20504;-77
2023/10/09 04:56:51;;;;;;;8.37;1.97;;;;;;;15.41;60.17;95550.91;5074046;28;20541;-78
2023/10/09 04:59:19;;;;;;;2.00;1.83;;;;;;;15.38;59.80;95543.25;5073652;28;21012;-78
2023/10/09 05:01:57;;;;;;;1.87;1.70;;;;;;;15.36;59.91;95561.09;5073816;28;20454;-78
2023/10/09 05:04:39;;;;;;;3.60;2.23;;;;;;;15.40;59.49;95570.41;5073446;28;20486;-77
2023/10/09 05:07:22;;;;;;;2.50;1.83;;;;;;;15.43;59.54;95566.63;5073503;28;20491;-77
2023/10/09 05:10:15;;;;;;;1.93;1.73;;;;;;;15.38;59.68;95572.34;5073228;28;20940;-78
2023/10/09 05:12:46;;;;;;;3.10;2.00;;;;;;;15.42;58.94;95560.50;5073783;28;20797;-78
2023/10/09 05:15:14;;;;;;;5.37;2.23;;;;;;;15.49;58.44;95561.59;5053386;28;20460;-78
2023/10/09 05:17:51;;;;;;;6.43;2.40;;;;;;;15.49;57.92;95558.94;5053644;28;20492;-78
2023/10/09 05:23:23;;;;;;;3.17;1.90;;;;;;;15.92;56.52;95568.16;4988790;28;20937;-78
2023/10/09 05:25:58;;;;;;;5.53;2.00;;;;;;;16.24;53.94;95582.78;4941076;28;20442;-78
2023/10/09 05:28:25;;;;;;;2.27;2.07;;;;;;;16.61;53.08;95582.69;4989465;28;20489;-78
2023/10/09 05:31:02;;;;;;;2.40;2.20;;;;;;;16.78;52.16;95586.38;4991818;28;20448;-78
2023/10/09 05:33:33;;;;;;;2.37;2.10;;;;;;;16.95;51.87;95583.72;4991344;28;20455;-79
2023/10/09 05:38:58;;;;;;;3.00;1.83;;;;;;;17.23;52.08;95580.97;4933639;29;20435;-79
2023/10/09 05:47:22;;;;;;;11.90;2.20;;;;;;;18.11;50.21;95613.59;4932649;29;21031;-78
2023/10/09 05:50:19;;;;;;;4.67;2.07;;;;;;;18.53;50.88;95624.25;4932720;29;20951;-81
2023/10/09 06:03:53;;;;;;;2.70;1.67;;;;;;;18.76;44.34;95635.13;5007440;28;20455;-80
2023/10/09 06:06:33;;;;;;;7.20;3.10;;;;;;;18.75;48.93;95647.59;5009579;28;20442;-78
2023/10/09 06:09:35;;;;;;;5.73;2.23;;;;;;;18.72;44.33;95647.91;5004469;28;20449;-83
2023/10/09 06:14:57;;;;;;;2.83;2.50;;;;;;;18.95;46.27;95648.16;4955030;28;20433;-77
2023/10/09 06:17:27;;;;;;;5.20;2.23;;;;;;;19.49;50.78;95649.38;5009519;28;20553;-76
2023/10/09 06:19:59;;;;;;;3.00;1.77;;;;;;;19.76;42.80;95644.75;4995161;28;20812;-76
2023/10/09 06:25:12;;;;;;;2.10;1.90;;;;;;;19.68;40.94;95666.91;5009902;28;20803;-78
2023/10/09 06:30:28;;;;;;;4.70;2.43;;;;;;;19.31;41.60;95662.00;5010635;28;20437;-79
2023/10/09 06:33:19;;;;;;;2.53;2.33;;;;;;;19.25;40.41;95664.50;5010638;28;20448;-78
2023/10/09 06:35:53;;;;;;;2.23;2.03;;;;;;;19.13;42.10;95662.16;5010396;28;21243;-78
2023/10/09 06:38:23;;;;;;;2.17;1.97;;;;;;;18.99;41.97;95673.44;5009884;28;20448;-79
2023/10/09 06:43:43;;;;;;;2.17;1.90;;;;;;;19.07;40.59;95670.78;4970493;28;20429;-79
2023/10/09 06:46:43;;;;;;;5.23;2.30;;;;;;;19.06;40.18;95679.75;4970447;28;20784;-79
2023/10/09 06:49:29;;;;;;;3.60;1.80;;;;;;;18.99;41.29;95680.56;4970640;28;20482;-78
2023/10/09 06:51:58;;;;;;;3.73;2.03;;;;;;;18.92;40.70;95672.41;4998933;28;20453;-78
2023/10/09 06:54:29;;;;;;;2.00;1.80;;;;;;;19.12;40.49;95665.81;5029514;28;20459;-79
2023/10/09 06:57:30;;;;;;;3.03;2.07;;;;;;;19.37;45.09;95672.03;5029856;28;20532;-79
2023/10/09 07:02:57;;;;;;;2.33;2.10;;;;;;;19.37;41.19;95679.16;5028838;28;20513;-79
2023/10/09 07:05:37;;;;;;;3.40;2.10;;;;;;;19.29;39.48;95677.31;5029609;28;20440;-79
2023/10/09 07:08:28;;;;;;;2.77;2.10;;;;;;;19.24;39.24;95681.47;5032714;28;20480;-79
2023/10/09 07:11:03;;;;;;;5.33;2.47;;;;;;;19.25;42.52;95678.63;5033227;28;20536;-79
2023/10/09 07:13:36;;;;;;;4.57;3.27;;;;;;;19.27;40.23;95675.81;5033161;28;20940;-78
2023/10/09 07:18:54;;;;;;;4.03;3.10;;;;;;;19.15;45.35;95677.97;5033180;28;20494;-78
2023/10/09 07:21:27;;;;;;;3.60;2.80;;;;;;;19.01;39.89;95674.09;5066859;28;20437;-78
2023/10/09 07:23:57;;;;;;;2.13;2.00;;;;;;;18.69;38.40;95677.50;5075338;28;20445;-78
2023/10/09 07:26:36;;;;;;;2.20;1.97;;;;;;;18.83;39.01;95687.53;5075756;28;20446;-79
2023/10/09 07:29:21;;;;;;;2.57;1.97;;;;;;;18.80;38.95;95679.03;5075181;28;20439;-79
2023/10/09 07:31:56;;;;;;;2.60;2.40;;;;;;;18.87;38.99;95672.09;5075300;28;20477;-79
2023/10/09 07:34:52;;;;;;;4.80;2.67;;;;;;;18.86;38.47;95679.22;5075150;28;20451;-78
2023/10/09 07:37:22;;;;;;;5.93;2.93;;;;;;;18.90;40.05;95669.09;5075385;28;20491;-79
2023/10/09 07:39:56;;;;;;;10.10;2.50;;;;;;;18.98;38.63;95666.44;5075195;28;20439;-79
2023/10/09 07:42:33;;;;;;;2.50;2.20;;;;;;;18.97;37.63;95675.41;5039868;28;20435;-77
2023/10/09 07:45:12;;;;;;;2.83;2.53;;;;;;;19.18;41.38;95673.16;5042634;28;20810;-77
2023/10/09 07:50:21;;;;;;;4.27;2.47;;;;;;;19.45;37.45;95669.34;5074806;28;20539;-80
2023/10/09 07:52:49;;;;;;;2.27;2.07;;;;;;;19.43;37.72;95671.34;5040233;28;20511;-79
2023/10/09 07:55:26;;;;;;;4.87;2.10;;;;;;;19.45;37.54;95677.34;5075113;28;20463;-80
2023/10/09 07:57:53;;;;;;;3.47;2.17;;;;;;;19.50;37.17;95676.84;5074980;28;20455;-80
2023/10/09 08:01:06;;;;;;;3.30;1.87;;;;;;;19.38;36.09;95684.34;5075168;28;20453;-79
2023/10/09 08:03:34;;;;;;;3.47;1.83;;;;;;;19.26;36.87;95680.31;5074650;28;20435;-79
2023/10/09 08:06:29;;;;;;;2.07;1.83;;;;;;;19.30;36.75;95673.66;5074700;28;20447;-79
2023/10/09 08:14:42;;;;;;;5.40;2.40;;;;;;;19.03;43.40;95674.75;5074317;28;20423;-79
2023/10/09 08:17:13;;;;;;;4.03;1.90;;;;;;;19.18;38.10;95673.16;5044763;28;20504;-79
2023/10/09 08:19:53;;;;;;;2.13;1.93;;;;;;;19.28;36.76;95672.16;5075520;28;20445;-79
2023/10/09 08:25:08;;;;;;;4.13;2.33;;;;;;;19.64;38.85;95665.56;5074350;28;20434;-79
2023/10/09 08:27:47;;;;;;;4.17;1.90;;;;;;;19.72;36.97;95664.75;5074332;28;20490;-79
2023/10/09 08:30:28;;;;;;;2.20;2.00;;;;;;;19.88;37.64;95654.06;5074159;28;20448;-79
2023/10/09 08:33:02;;;;;;;2.30;2.10;;;;;;;19.88;34.88;95654.06;5074027;28;21019;-79
2023/10/09 08:35:33;;;;;;;4.13;1.83;;;;;;;19.90;35.90;95652.06;5074128;28;20459;-79
2023/10/09 08:38:03;;;;;;;2.90;2.40;;;;;;;19.83;34.32;95647.56;5074078;28;20453;-79
2023/10/09 08:40:37;;;;;;;2.50;1.70;;;;;;;19.77;36.33;95641.09;5074024;28;20449;-79
2023/10/09 08:43:10;;;;;;;2.13;1.93;;;;;;;19.80;35.19;95630.09;5073833;28;20534;-79
2023/10/09 08:45:40;;;;;;;2.60;1.93;;;;;;;19.91;34.64;95637.72;5073731;28;20452;-79
2023/10/09 08:48:15;;;;;;;2.53;1.90;;;;;;;19.97;33.71;95625.59;5039320;28;20489;-80
2023/10/09 08:50:43;;;;;;;1.93;1.73;;;;;;;19.70;33.94;95627.63;5073845;28;20444;-80
2023/10/09 08:53:11;;;;;;;4.27;2.10;;;;;;;19.73;35.16;95629.13;5074089;28;20447;-80
2023/10/09 08:55:38;;;;;;;2.90;2.13;;;;;;;20.00;36.25;95631.41;5073438;28;20955;-77
2023/10/09 08:58:10;;;;;;;2.27;1.87;;;;;;;20.21;35.72;95619.34;5073278;28;20468;-79
2023/10/09 09:00:43;;;;;;;2.30;2.10;;;;;;;20.10;34.42;95620.53;5073133;28;20451;-79
2023/10/09 09:03:12;;;;;;;3.33;2.27;;;;;;;20.34;34.70;95617.81;5073413;28;20566;-79
2023/10/09 09:05:39;;;;;;;4.23;2.20;;;;;;;20.23;34.04;95618.16;5073108;28;20459;-79
2023/10/09 09:08:25;;;;;;;1.93;1.73;;;;;;;20.18;34.07;95617.03;5073061;28;20496;-79
2023/10/09 09:10:59;;;;;;;2.00;1.80;;;;;;;20.33;34.03;95616.16;5073373;28;20459;-79
2023/10/09 09:13:31;;;;;;;2.47;1.67;;;;;;;20.18;34.52;95617.03;5073195;28;20444;-79
2023/10/09 09:15:59;;;;;;;1.93;1.73;;;;;;;20.22;34.36;95613.84;5073147;28;20472;-80
2023/10/09 09:18:31;;;;;;;1.77;1.63;;;;;;;20.19;33.63;95619.50;5073512;28;20451;-79
2023/10/09 09:20:59;;;;;;;1.70;1.40;;;;;;;20.28;32.55;95625.66;5072669;28;20970;-79
2023/10/09 09:23:27;;;;;;;5.53;1.90;;;;;;;20.35;33.04;95630.13;5073110;28;20933;-79
2023/10/09 09:25:59;;;;;;;5.10;1.80;;;;;;;20.38;32.53;95624.47;5072888;28;20477;-78
2023/10/09 09:28:32;;;;;;;3.80;2.33;;;;;;;20.18;32.49;95612.53;5072470;28;20988;-77
2023/10/09 09:31:13;;;;;;;1.90;1.70;;;;;;;20.29;33.20;95616.66;5038659;28;20520;-79
2023/10/09 09:33:42;;;;;;;4.90;2.10;;;;;;;20.34;34.16;95616.97;5073183;28;20455;-77
2023/10/09 09:36:11;;;;;;;3.93;2.03;;;;;;;20.33;31.70;95608.16;5072795;28;20451;-76
2023/10/09 09:38:47;;;;;;;2.60;2.00;;;;;;;20.26;31.80;95604.53;5072393;28;20830;-79
2023/10/09 09:41:23;;;;;;;5.63;1.80;;;;;;;20.00;31.83;95609.25;5072491;28;20527;-79
2023/10/09 09:43:55;;;;;;;2.23;2.03;;;;;;;20.01;32.99;95601.09;5072517;28;20444;-78
2023/10/09 09:46:32;;;;;;;3.53;1.80;;;;;;;20.09;32.51;95598.41;5072886;28;20452;-79
2023/10/09 09:49:01;;;;;;;2.53;2.00;;;;;;;20.23;31.68;95594.19;5040299;28;20490;-79
2023/10/09 09:51:30;;;;;;;6.57;2.30;;;;;;;20.33;31.58;95600.16;5072391;28;20440;-79
2023/10/09 09:53:57;;;;;;;3.83;1.90;;;;;;;20.38;32.07;95600.47;5072168;28;20458;-77
2023/10/09 09:56:26;;;;;;;1.97;1.77;;;;;;;20.39;32.28;95593.28;5072075;28;20448;-77
2023/10/09 09:58:56;;;;;;;3.40;1.80;;;;;;;20.38;32.01;95592.47;5072187;28;20817;-77
2023/10/09 10:01:27;;;;;;;1.87;1.67;;;;;;;20.23;31.97;95591.50;5072198;28;20453;-77
2023/10/09 10:03:58;;;;;;;2.90;2.00;;;;;;;20.21;32.64;95579.38;5072090;28;20437;-77
2023/10/09 10:06:32;;;;;;;2.20;2.00;;;;;;;20.03;32.95;95568.94;5071987;28;20441;-77
2023/10/09 10:08:59;;;;;;;4.23;2.10;;;;;;;20.15;32.80;95564.06;5052959;28;20481;-77
2023/10/09 10:11:44;;;;;;;1.70;1.60;;;;;;;20.32;32.30;95565.69;5072109;28;20437;-77
2023/10/09 10:14:11;;;;;;;2.47;1.80;;;;;;;20.35;31.91;95555.50;5071871;28;20448;-77
2023/10/09 10:17:03;;;;;;;4.00;1.83;;;;;;;20.48;32.52;95559.44;5072050;28;20482;-77
2023/10/09 10:20:01;;;;;;;1.63;1.53;;;;;;;20.54;32.53;95543.63;5071808;28;20452;-78
2023/10/09 10:22:30;;;;;;;2.23;2.00;;;;;;;20.66;33.43;95544.03;5072109;28;20454;-77
2023/10/09 10:25:02;;;;;;;6.90;2.17;;;;;;;20.68;32.54;95542.00;5071716;28;20453;-77
2023/10/09 10:27:32;;;;;;;4.43;2.10;;;;;;;20.79;32.24;95527.44;5071671;28;20498;-77
2023/10/09 10:30:31;;;;;;;1.80;1.60;;;;;;;20.84;34.73;95533.09;5073463;28;20451;-89
2023/10/09 10:33:09;;;;;;;2.80;1.50;;;;;;;20.91;31.50;95518.84;5036647;28;20434;-78
2023/10/09 10:35:45;;;;;;;4.27;2.07;;;;;;;20.87;31.80;95514.88;5071875;28;20523;-77
2023/10/09 10:38:32;;;;;;;2.70;2.40;;;;;;;20.71;31.22;95517.66;5071885;28;20441;-77
2023/10/09 10:41:11;;;;;;;2.50;2.20;;;;;;;20.65;30.49;95503.19;5073614;28;20952;-78
2023/10/09 10:43:54;;;;;;;2.10;1.90;;;;;;;20.62;32.26;95500.06;5076072;28;20885;-78
2023/10/09 10:46:30;;;;;;;2.83;1.80;;;;;;;20.27;32.46;95502.22;5075823;28;20897;-78
2023/10/09 10:49:00;;;;;;;1.97;1.77;;;;;;;20.25;32.18;95500.75;5056815;28;20471;-78
2023/10/09 10:51:35;;;;;;;2.10;1.80;;;;;;;20.23;34.25;95481.41;5057191;28;20465;-74
2023/10/09 10:56:45;;;;;;;6.60;2.03;;;;;;;20.47;31.96;95477.81;5075451;28;20433;-74
2023/10/09 10:59:13;;;;;;;3.17;1.80;;;;;;;20.57;33.84;95476.59;5076047;28;20448;-74
2023/10/09 11:01:58;;;;;;;4.13;1.87;;;;;;;20.74;35.16;95479.94;5041048;28;20447;-74
2023/10/09 11:04:38;;;;;;;9.03;2.17;;;;;;;20.83;31.56;95472.75;5045392;28;20497;-74
2023/10/09 11:07:09;;;;;;;1.97;1.87;;;;;;;20.86;33.87;95475.88;5075239;28;20453;-74
2023/10/09 11:09:58;;;;;;;6.30;2.30;;;;;;;20.94;32.61;95464.31;5075566;28;20575;-75
2023/10/09 11:12:37;;;;;;;3.00;1.87;;;;;;;20.96;32.53;95465.78;5075311;28;20441;-74
2023/10/09 11:15:08;;;;;;;6.00;2.13;;;;;;;21.08;31.88;95457.31;5075111;28;20468;-76
2023/10/09 11:17:38;;;;;;;2.83;1.90;;;;;;;21.17;29.74;95454.44;5073014;28;20474;-76
2023/10/09 11:23:11;;;;;;;7.63;2.40;;;;;;;20.70;30.13;95430.66;5074389;28;20763;-76
2023/10/09 11:25:49;;;;;;;3.27;2.17;;;;;;;20.60;29.95;95414.91;5074873;28;20451;-76
2023/10/09 11:28:29;;;;;;;2.03;1.83;;;;;;;20.63;30.26;95414.53;5075067;28;20533;-76
2023/10/09 11:31:05;;;;;;;4.07;2.50;;;;;;;20.74;30.57;95410.59;5074560;28;20444;-76
2023/10/09 11:33:44;;;;;;;2.40;2.00;;;;;;;20.85;30.91;95399.53;5074700;28;20502;-76
2023/10/09 11:36:11;;;;;;;3.37;2.67;;;;;;;20.87;30.56;95400.16;5074676;28;20425;-76
2023/10/09 11:38:38;;;;;;;2.90;1.90;;;;;;;20.65;31.88;95395.69;5038863;28;20948;-76
2023/10/09 11:41:19;;;;;;;3.60;2.20;;;;;;;20.69;31.46;95404.97;5074808;28;20452;-76
2023/10/09 11:43:53;;;;;;;3.17;2.20;;;;;;;20.78;32.87;95406.56;5074647;28;20500;-76
2023/10/09 11:46:48;;;;;;;1.90;1.70;;;;;;;20.78;31.59;95406.56;5074312;28;20480;-77
2023/10/09 11:54:49;;;;;;;3.47;2.87;;;;;;;20.95;31.22;95400.09;5073950;28;20453;-76
2023/10/09 11:57:18;;;;;;;4.20;2.73;;;;;;;20.96;31.18;95392.91;5074536;28;20837;-76
2023/10/09 11:59:44;;;;;;;3.10;2.80;;;;;;;21.02;30.64;95390.34;5074548;28;20474;-76
2023/10/09 12:02:12;;;;;;;3.40;3.10;;;;;;;21.06;30.43;95382.78;5074797;28;20580;-76
2023/10/09 12:04:41;;;;;;;11.40;3.10;;;;;;;21.07;30.44;95376.44;5073981;28;20446;-76
2023/10/09 12:07:10;;;;;;;4.00;2.90;;;;;;;20.88;30.33;95369.81;5074026;28;20518;-76
2023/10/09 12:09:37;;;;;;;5.23;3.57;;;;;;;20.73;30.34;95360.94;5074369;28;20484;-76
2023/10/09 12:12:05;;;;;;;6.93;3.37;;;;;;;20.90;30.74;95348.28;5039207;28;20457;-76
2023/10/09 12:14:34;;;;;;;9.23;3.20;;;;;;;20.78;30.97;95350.56;5038767;28;20454;-76
2023/10/09 12:17:05;;;;;;;3.60;3.30;;;;;;;20.88;31.25;95342.31;5073548;28;20564;-76
2023/10/09 12:19:34;;;;;;;4.57;2.93;;;;;;;21.03;31.17;95335.94;5074497;28;20665;-76
2023/10/09 12:22:01;;;;;;;5.57;3.20;;;;;;;21.12;31.21;95335.88;5074470;28;20532;-77
2023/10/09 12:24:30;;;;;;;5.07;2.90;;;;;;;21.15;30.69;95338.19;5074296;28;20500;-77
2023/10/09 12:26:58;;;;;;;4.27;3.50;;;;;;;21.19;30.46;95331.47;5073992;28;20450;-77
2023/10/09 12:29:29;;;;;;;4.50;3.70;;;;;;;21.14;29.95;95342.69;5054763;28;20515;-78
2023/10/09 12:31:59;;;;;;;3.70;2.90;;;;;;;21.12;30.14;95336.72;5073594;28;20449;-78
2023/10/09 12:34:27;;;;;;;6.10;3.77;;;;;;;21.17;30.18;95334.31;5073561;28;20472;-76
2023/10/09 12:36:54;;;;;;;4.07;3.17;;;;;;;21.20;30.27;95325.09;5073170;28;20482;-77
2023/10/09 12:39:21;;;;;;;6.73;3.07;;;;;;;21.21;30.41;95321.44;5073612;28;20469;-77
2023/10/09 12:41:53;;;;;;;4.43;2.53;;;;;;;21.29;29.53;95321.34;5073525;28;20446;-77
2023/10/09 12:44:20;;;;;;;5.17;3.07;;;;;;;21.35;29.61;95320.59;5073734;28;20522;-77
2023/10/09 12:46:52;;;;;;;3.70;3.13;;;;;;;21.39;30.49;95313.88;5073859;28;20482;-76
2023/10/09 12:49:24;;;;;;;5.37;2.60;;;;;;;21.39;30.34;95308.53;5037961;28;20915;-76
2023/10/09 12:51:52;;;;;;;4.27;2.60;;;;;;;21.44;29.62;95298.16;5073768;28;20441;-77
2023/10/09 12:54:26;;;;;;;2.70;2.50;;;;;;;21.40;29.28;95302.22;5038501;28;20541;-77
2023/10/09 12:56:53;;;;;;;4.27;2.27;;;;;;;21.53;29.92;95305.03;5073550;28;20443;-77
2023/10/09 12:59:21;;;;;;;6.83;1.93;;;;;;;21.56;28.99;95282.47;5072893;28;20441;-76
2023/10/09 13:01:52;;;;;;;3.10;2.17;;;;;;;21.61;30.03;95291.56;5038101;28;20968;-77
2023/10/09 13:04:23;;;;;;;2.50;2.20;;;;;;;21.71;27.92;95282.44;5073195;28;20437;-77
2023/10/09 13:06:53;;;;;;;2.63;2.30;;;;;;;21.75;28.46;95281.03;5073318;28;20858;-77
2023/10/09 13:09:32;;;;;;;4.77;1.90;;;;;;;21.80;28.67;95281.28;5072733;28;20484;-76
2023/10/09 13:12:00;;;;;;;2.23;2.03;;;;;;;21.70;27.84;95284.28;5073018;28;20470;-77
2023/10/09 13:14:27;;;;;;;11.53;2.20;;;;;;;21.65;27.67;95271.47;5072653;28;20479;-77